Armada, Nebraska
Current Conditions -  °F | °C
As of 11:55 AM on Friday 19 Dec 2014 (Local Time) from KEAR Reporting Station
Overcast Overcast  
Wind Chill: 19°   Ceiling: 300
Heat Index: 28°   Visibility: 1.2mi
Dew Point: 27°   Wind: 10mph
Humidity: 93%   Direction: 180°S
Pressure: 30.13"   Gusts: NA
Location:  40.9599°N, 99.3688°W
Report Text: KEAR 191755Z 18009KT 1 1/4SM OVC003 M02/M03 A3013 RMK AO1 11020 21040 57003
Loading
Personal Weather Stations






























Interactive Weather Map New forecast layout! Learn more

10-Day Weather Forecast

Advertisements
Track Severe Weather on mobile